aviador You're here:

GMMH Decoded Metar

DAKHLA in OCCIDENTAL SAHARA
Report Time2017-12-13 10:00:00
UTC Time2017-12-13 10:51:32
Flight Rules vfr VFR
Wind060° at 20 kt
W.Decomp.*RWY 03: 16.2 kt HW 11.8 kt RCW
W.Rank060° ranks 12
Current wind is above 060° avg. (12.8)
Visibility9999 m
Phenomena:N/A
Clouds:Scattered 033 Hf
Expected CloudBase > 3,600 ft AGL from Temp-Dew spread
CeilingNone
Temp17°C (ISA +2)
Dew Point08°C (56% RH)
AAT9.4°C
QNH1020 hPa
Density Alt190 ft
Elevation36 ft
Report Wrong Elevation
Raw Report
METAR COR GMMH 131000Z 06020KT 9999 SCT033 17/08 Q1020 NOSIG=

Extra information for GMMH:More info

Metar Taf Metar & Taf Last 4 Metars F.Rules Stats Wind Profile Meteogram Temp Stats Airport Information Weather charts Add Link Nearby VenuesMetar ALERT Operation Metar Decoded Social comments